createdAt,value
2018-12-13T00:00:06.811Z,3.70
2018-12-13T00:02:36.409Z,3.80
2018-12-13T00:05:05.168Z,3.70
2018-12-13T00:07:34.937Z,3.70
2018-12-13T00:10:03.955Z,3.70
2018-12-13T00:12:32.672Z,3.70
2018-12-13T00:15:01.750Z,3.60
2018-12-13T00:17:30.611Z,3.60
2018-12-13T00:19:59.265Z,3.50
2018-12-13T00:22:28.878Z,3.40
2018-12-13T00:24:57.497Z,3.50
2018-12-13T00:27:26.126Z,3.50
2018-12-13T00:29:54.792Z,3.50
2018-12-13T00:32:23.497Z,3.40
2018-12-13T00:34:52.236Z,3.40
2018-12-13T00:37:21.090Z,3.40
2018-12-13T00:39:49.863Z,3.40
2018-12-13T00:42:18.549Z,3.40
2018-12-13T00:44:48.075Z,3.40
2018-12-13T00:47:17.097Z,3.40
2018-12-13T00:49:46.099Z,3.30
2018-12-13T00:52:15.620Z,3.40
2018-12-13T00:54:44.572Z,3.40
2018-12-13T00:57:13.307Z,3.40
2018-12-13T00:59:42.312Z,3.40
2018-12-13T01:02:11.142Z,3.50
2018-12-13T01:04:41.608Z,3.50
2018-12-13T01:07:10.988Z,3.50
2018-12-13T01:09:40.632Z,3.50
2018-12-13T01:12:09.414Z,3.60
2018-12-13T01:14:39.134Z,3.50
2018-12-13T01:17:07.824Z,3.40
2018-12-13T01:19:36.521Z,3.40
2018-12-13T01:22:05.349Z,3.40
2018-12-13T01:24:33.994Z,3.30
2018-12-13T01:27:03.450Z,3.20
2018-12-13T01:29:32.211Z,3.10
2018-12-13T01:32:01.516Z,2.90
2018-12-13T01:34:30.237Z,2.80
2018-12-13T01:36:58.841Z,2.70
2018-12-13T01:39:27.530Z,2.60
2018-12-13T01:41:56.122Z,2.50
2018-12-13T01:44:24.813Z,2.40
2018-12-13T01:46:53.759Z,2.40
2018-12-13T01:49:22.539Z,2.20
2018-12-13T01:51:51.104Z,2.10
2018-12-13T01:54:19.693Z,2.10
2018-12-13T01:56:48.319Z,2.00
2018-12-13T01:59:16.848Z,2.00
2018-12-13T02:01:45.767Z,1.90
2018-12-13T02:04:14.369Z,1.90
2018-12-13T02:06:43.547Z,1.80
2018-12-13T02:09:12.091Z,1.70
2018-12-13T02:11:40.673Z,1.60
2018-12-13T02:14:09.271Z,1.60
2018-12-13T02:16:37.904Z,1.50
2018-12-13T02:19:06.466Z,1.50
2018-12-13T02:21:35.084Z,1.40
2018-12-13T02:24:03.670Z,1.50
2018-12-13T02:26:32.446Z,1.50
2018-12-13T02:29:01.025Z,1.50
2018-12-13T02:31:29.979Z,1.50
2018-12-13T02:33:58.763Z,1.60
2018-12-13T02:36:27.378Z,1.60
2018-12-13T02:38:55.926Z,1.60
2018-12-13T02:41:24.628Z,1.50
2018-12-13T02:43:53.340Z,1.50
2018-12-13T02:46:21.927Z,1.40
2018-12-13T02:48:56.973Z,1.30
2018-12-13T02:51:25.602Z,1.20
2018-12-13T02:53:54.282Z,1.20
2018-12-13T02:56:22.847Z,1.10
2018-12-13T02:58:51.669Z,1.10
2018-12-13T03:01:20.231Z,1.00
2018-12-13T03:03:49.755Z,1.00
2018-12-13T03:06:18.487Z,1.00
2018-12-13T03:08:47.128Z,1.00
2018-12-13T03:11:16.572Z,0.90
2018-12-13T03:13:45.268Z,0.90
2018-12-13T03:16:13.834Z,0.90
2018-12-13T03:18:42.396Z,0.80
2018-12-13T03:21:10.956Z,0.80
2018-12-13T03:23:39.501Z,0.80
2018-12-13T03:26:08.013Z,0.70
2018-12-13T03:28:36.595Z,0.70
2018-12-13T03:31:05.218Z,0.70
2018-12-13T03:33:33.835Z,0.80
2018-12-13T03:36:02.340Z,0.80
2018-12-13T03:38:30.859Z,0.80
2018-12-13T03:40:59.560Z,0.70
2018-12-13T03:43:28.058Z,0.60
2018-12-13T03:45:56.583Z,0.60
2018-12-13T03:48:25.137Z,0.50
2018-12-13T03:50:53.790Z,0.50
2018-12-13T03:53:22.364Z,0.50
2018-12-13T03:55:51.128Z,0.40
2018-12-13T03:58:19.786Z,0.30
2018-12-13T04:00:48.473Z,0.40
2018-12-13T04:03:17.061Z,0.30
2018-12-13T04:05:45.597Z,0.30
2018-12-13T04:08:14.308Z,0.30
2018-12-13T04:10:42.899Z,0.40
2018-12-13T04:13:11.591Z,0.40
2018-12-13T04:15:40.183Z,0.40
2018-12-13T04:18:08.848Z,0.40
2018-12-13T04:20:38.166Z,0.30
2018-12-13T04:23:06.898Z,0.30
2018-12-13T04:25:35.439Z,0.30
2018-12-13T04:28:04.129Z,0.30
2018-12-13T04:30:32.735Z,0.20
2018-12-13T04:33:01.482Z,0.20
2018-12-13T04:35:30.081Z,0.30
2018-12-13T04:37:58.697Z,0.30
2018-12-13T04:40:27.914Z,0.30
2018-12-13T04:42:56.704Z,0.30
2018-12-13T04:45:25.304Z,0.30
2018-12-13T04:47:53.987Z,0.30
2018-12-13T04:50:22.714Z,0.30
2018-12-13T04:52:51.270Z,0.40
2018-12-13T04:55:20.120Z,0.30
2018-12-13T04:57:48.730Z,0.30
2018-12-13T05:00:17.325Z,0.20
2018-12-13T05:02:45.870Z,0.20
2018-12-13T05:05:14.510Z,0.20
2018-12-13T05:07:43.079Z,0.20
2018-12-13T05:10:21.389Z,0.10
2018-12-13T05:12:49.965Z,0.00
2018-12-13T05:15:18.715Z,-0.10
2018-12-13T05:17:47.866Z,-0.10
2018-12-13T05:20:16.460Z,-0.10
2018-12-13T05:22:45.017Z,-0.10
2018-12-13T05:25:13.654Z,0.00
2018-12-13T05:27:42.180Z,-0.10
2018-12-13T05:30:10.808Z,-0.10
2018-12-13T05:32:39.331Z,-0.10
2018-12-13T05:35:08.213Z,0.00
2018-12-13T05:37:37.027Z,0.00
2018-12-13T05:40:05.821Z,-0.10
2018-12-13T05:42:34.543Z,-0.10
2018-12-13T05:45:03.233Z,-0.10
2018-12-13T05:47:31.886Z,0.00
2018-12-13T05:50:00.541Z,-0.10
2018-12-13T05:52:29.303Z,-0.10
2018-12-13T05:54:57.852Z,-0.20
2018-12-13T05:57:26.497Z,-0.30
2018-12-13T05:59:55.222Z,-0.30
2018-12-13T06:02:24.066Z,-0.30
2018-12-13T06:04:52.655Z,-0.30
2018-12-13T06:07:21.355Z,-0.30
2018-12-13T06:09:49.946Z,-0.40
2018-12-13T06:12:18.630Z,-0.40
2018-12-13T06:14:47.203Z,-0.40
2018-12-13T06:17:15.835Z,-0.40
2018-12-13T06:19:44.382Z,-0.40
2018-12-13T06:22:13.132Z,-0.40
2018-12-13T06:24:41.748Z,-0.50
2018-12-13T06:27:10.419Z,-0.50
2018-12-13T06:29:41.818Z,-0.60
2018-12-13T06:32:09.547Z,-0.60
2018-12-13T06:34:38.379Z,-0.70
2018-12-13T06:37:07.056Z,-0.70
2018-12-13T06:39:35.719Z,-0.70
2018-12-13T06:42:04.541Z,-0.70
2018-12-13T06:44:33.146Z,-0.80
2018-12-13T06:47:01.912Z,-0.80
2018-12-13T06:49:30.583Z,-0.80
2018-12-13T06:51:59.203Z,-0.80
2018-12-13T06:54:27.994Z,-0.80
2018-12-13T06:56:56.559Z,-0.80
2018-12-13T06:59:25.142Z,-0.80
2018-12-13T07:01:54.122Z,-0.70
2018-12-13T07:04:22.693Z,-0.80
2018-12-13T07:06:51.497Z,-0.80
2018-12-13T07:09:20.062Z,-0.80
2018-12-13T07:11:48.984Z,-0.80
2018-12-13T07:14:17.609Z,-0.70
2018-12-13T07:16:46.537Z,-0.70
2018-12-13T07:19:15.211Z,-0.60
2018-12-13T07:21:43.816Z,-0.60
2018-12-13T07:24:12.463Z,-0.50
2018-12-13T07:26:41.296Z,-0.60
2018-12-13T07:29:10.174Z,-0.60
2018-12-13T07:31:38.824Z,-0.60
2018-12-13T07:34:07.312Z,-0.60
2018-12-13T07:36:36.860Z,-0.60
2018-12-13T07:39:10.082Z,-0.70
2018-12-13T07:41:39.801Z,-0.70
2018-12-13T07:44:08.556Z,-0.70
2018-12-13T07:46:37.388Z,-0.70
2018-12-13T07:49:06.137Z,-0.70
2018-12-13T07:51:34.808Z,-0.70
2018-12-13T07:54:03.515Z,-0.80
2018-12-13T07:56:32.261Z,-0.70
2018-12-13T07:59:00.769Z,-0.70
2018-12-13T08:01:29.596Z,-0.70
2018-12-13T08:03:58.213Z,-0.70
2018-12-13T08:06:26.902Z,-0.60
2018-12-13T08:08:55.688Z,-0.60
2018-12-13T08:11:24.382Z,-0.50
2018-12-13T08:13:53.873Z,-0.50
2018-12-13T08:16:22.486Z,-0.30
2018-12-13T08:18:51.620Z,-0.30
2018-12-13T08:21:20.316Z,-0.10
2018-12-13T08:23:49.321Z,0.10
2018-12-13T08:26:18.095Z,0.30
2018-12-13T08:28:46.826Z,0.40
2018-12-13T08:31:16.175Z,0.50
2018-12-13T08:33:44.780Z,0.60
2018-12-13T08:36:14.295Z,0.70
2018-12-13T08:38:42.913Z,0.80
2018-12-13T08:41:11.540Z,0.80
2018-12-13T08:43:40.173Z,0.90
2018-12-13T08:46:08.771Z,1.00
2018-12-13T08:48:37.648Z,1.10
2018-12-13T08:51:06.364Z,1.20
2018-12-13T08:53:35.480Z,1.20
2018-12-13T08:56:05.371Z,1.30
2018-12-13T08:58:33.989Z,1.40
2018-12-13T09:03:37.941Z,1.50
2018-12-13T09:06:06.644Z,1.50
2018-12-13T09:08:35.480Z,1.60
2018-12-13T09:11:04.202Z,1.60
2018-12-13T09:13:32.952Z,1.70
2018-12-13T09:16:01.671Z,1.70
2018-12-13T09:18:30.542Z,1.80
2018-12-13T09:20:59.799Z,1.80
2018-12-13T09:23:28.506Z,1.80
2018-12-13T09:25:57.282Z,1.80
2018-12-13T09:28:26.036Z,1.90
2018-12-13T09:30:54.962Z,2.00
2018-12-13T09:33:23.846Z,2.00
2018-12-13T09:35:52.866Z,2.00
2018-12-13T09:38:21.641Z,2.10
2018-12-13T09:40:50.817Z,2.10
2018-12-13T09:43:21.507Z,2.20
2018-12-13T09:45:51.456Z,2.20
2018-12-13T09:48:21.543Z,2.20
2018-12-13T09:50:50.162Z,2.30
2018-12-13T09:53:19.918Z,2.30
2018-12-13T09:55:49.003Z,2.30
2018-12-13T09:58:18.215Z,2.30
2018-12-13T10:00:47.166Z,2.40
2018-12-13T10:03:15.822Z,2.40
2018-12-13T10:05:45.207Z,2.50
2018-12-13T10:08:14.000Z,2.50
2018-12-13T10:10:42.586Z,2.60
2018-12-13T10:13:11.477Z,2.60
2018-12-13T10:15:40.087Z,2.60
2018-12-13T10:18:09.246Z,2.50
2018-12-13T10:20:38.369Z,2.50
2018-12-13T10:23:07.196Z,2.60
2018-12-13T10:25:36.062Z,2.60
2018-12-13T10:28:05.055Z,2.50
2018-12-13T10:30:33.637Z,2.50
2018-12-13T10:33:02.221Z,2.50
2018-12-13T10:35:31.392Z,2.50
2018-12-13T10:38:00.394Z,2.60
2018-12-13T10:40:29.213Z,2.60
2018-12-13T10:42:57.867Z,2.50
2018-12-13T10:45:26.477Z,2.50
2018-12-13T10:47:55.127Z,2.60
2018-12-13T10:50:25.526Z,2.60
2018-12-13T10:52:54.176Z,2.60
2018-12-13T10:55:23.226Z,2.70
2018-12-13T10:57:51.831Z,2.70
2018-12-13T11:00:24.675Z,2.70
2018-12-13T11:03:08.819Z,2.70
2018-12-13T11:05:37.856Z,2.80
2018-12-13T11:08:06.503Z,2.90
2018-12-13T11:10:35.152Z,2.90
2018-12-13T11:13:03.751Z,3.00
2018-12-13T11:15:32.683Z,3.00
2018-12-13T11:18:03.634Z,3.00
2018-12-13T11:20:32.346Z,3.00
2018-12-13T11:23:00.922Z,3.00
2018-12-13T11:25:29.790Z,3.00
2018-12-13T11:28:18.859Z,3.10
2018-12-13T11:30:47.712Z,3.20
2018-12-13T11:33:16.565Z,3.20
2018-12-13T11:35:45.603Z,3.20
2018-12-13T11:38:14.488Z,3.10
2018-12-13T11:40:43.198Z,3.10
2018-12-13T11:43:11.867Z,3.10
2018-12-13T11:45:40.483Z,3.10
2018-12-13T11:48:09.111Z,3.10
2018-12-13T11:50:37.670Z,3.10
2018-12-13T11:53:06.327Z,3.10
2018-12-13T11:55:37.540Z,3.20
2018-12-13T11:58:10.670Z,3.20
2018-12-13T12:00:39.263Z,3.20
2018-12-13T12:03:08.258Z,3.30
2018-12-13T12:05:36.983Z,3.30
2018-12-13T12:08:05.873Z,3.30
2018-12-13T12:10:34.930Z,3.30
2018-12-13T12:13:04.083Z,3.20
2018-12-13T12:15:32.680Z,3.30
2018-12-13T12:18:01.687Z,3.20
2018-12-13T12:20:31.262Z,3.30
2018-12-13T12:22:59.942Z,3.30
2018-12-13T12:25:28.502Z,3.30
2018-12-13T12:27:57.296Z,3.30
2018-12-13T12:30:25.917Z,3.30
2018-12-13T12:32:54.789Z,3.30
2018-12-13T12:35:23.385Z,3.30
2018-12-13T12:37:52.030Z,3.30
2018-12-13T12:40:20.924Z,3.30
2018-12-13T12:42:49.463Z,3.40
2018-12-13T12:45:18.878Z,3.30
2018-12-13T12:47:47.503Z,3.30
2018-12-13T12:50:16.468Z,3.40
2018-12-13T12:52:45.106Z,3.30
2018-12-13T12:55:13.727Z,3.30
2018-12-13T12:57:42.261Z,3.30
2018-12-13T13:00:11.416Z,3.20
2018-12-13T13:02:40.446Z,3.30
2018-12-13T13:05:09.822Z,3.30
2018-12-13T13:07:40.057Z,3.30
2018-12-13T13:10:10.040Z,3.20
2018-12-13T13:12:40.143Z,3.30
2018-12-13T13:15:10.297Z,3.20
2018-12-13T13:17:38.938Z,3.20
2018-12-13T13:20:08.480Z,3.20
2018-12-13T13:22:38.710Z,3.20
2018-12-13T13:25:10.139Z,3.20
2018-12-13T13:27:39.281Z,3.10
2018-12-13T13:30:08.138Z,3.20
2018-12-13T13:32:38.403Z,3.20
2018-12-13T13:35:07.200Z,3.10
2018-12-13T13:37:37.306Z,3.10
2018-12-13T13:40:07.007Z,3.00
2018-12-13T13:42:36.385Z,3.10
2018-12-13T13:45:06.563Z,3.10
2018-12-13T13:47:36.016Z,3.10
2018-12-13T13:50:05.608Z,3.00
2018-12-13T13:52:34.282Z,3.00
2018-12-13T13:55:03.134Z,2.90
2018-12-13T13:57:31.867Z,2.90
2018-12-13T14:00:00.501Z,3.00
2018-12-13T14:02:29.198Z,2.90
2018-12-13T14:04:58.581Z,2.90
2018-12-13T14:07:27.296Z,2.90
2018-12-13T14:09:56.447Z,2.90
2018-12-13T14:12:25.984Z,2.90
2018-12-13T14:14:55.052Z,2.90
2018-12-13T14:17:24.714Z,2.90
2018-12-13T14:19:54.099Z,3.00
2018-12-13T14:22:22.880Z,2.90
2018-12-13T14:24:51.519Z,2.90
2018-12-13T14:27:20.151Z,2.90
2018-12-13T14:29:49.162Z,2.90
2018-12-13T14:32:18.557Z,2.90
2018-12-13T14:34:48.420Z,2.90
2018-12-13T14:37:17.213Z,2.90
2018-12-13T14:39:46.993Z,2.90
2018-12-13T14:42:17.194Z,2.80
2018-12-13T14:44:45.933Z,2.80
2018-12-13T14:47:14.634Z,2.80
2018-12-13T14:49:43.195Z,2.70
2018-12-13T14:52:11.825Z,2.70
2018-12-13T14:54:41.189Z,2.70
2018-12-13T14:57:09.836Z,2.50
2018-12-13T14:59:38.392Z,2.50
2018-12-13T15:02:07.179Z,2.40
2018-12-13T15:04:35.838Z,2.30
2018-12-13T15:07:04.423Z,2.20
2018-12-13T15:09:33.082Z,2.20
2018-12-13T15:12:01.959Z,2.10
2018-12-13T15:14:31.895Z,2.10
2018-12-13T15:17:00.564Z,2.00
2018-12-13T15:19:29.943Z,1.90
2018-12-13T15:22:03.607Z,1.80
2018-12-13T15:24:39.907Z,1.70
2018-12-13T15:27:08.500Z,1.60
2018-12-13T15:29:37.119Z,1.50
2018-12-13T15:32:05.790Z,1.40
2018-12-13T15:34:34.796Z,1.40
2018-12-13T15:37:03.546Z,1.30
2018-12-13T15:39:32.184Z,1.30
2018-12-13T15:42:00.787Z,1.50
2018-12-13T15:44:29.549Z,1.60
2018-12-13T15:46:58.147Z,1.60
2018-12-13T15:49:27.548Z,1.70
2018-12-13T15:51:56.365Z,1.60
2018-12-13T15:54:25.440Z,1.50
2018-12-13T15:56:54.554Z,1.50
2018-12-13T15:59:24.450Z,1.60
2018-12-13T16:01:53.356Z,1.60
2018-12-13T16:04:22.154Z,1.60
2018-12-13T16:06:51.462Z,1.70
2018-12-13T16:09:20.278Z,1.80
2018-12-13T16:11:49.802Z,1.90
2018-12-13T16:14:18.552Z,2.10
2018-12-13T16:16:47.822Z,2.10
2018-12-13T16:19:17.713Z,2.10
2018-12-13T16:21:46.473Z,2.10
2018-12-13T16:24:15.224Z,2.20
2018-12-13T16:26:43.958Z,2.20
2018-12-13T16:29:12.574Z,2.20
2018-12-13T16:31:41.193Z,2.20
2018-12-13T16:34:10.025Z,2.30
2018-12-13T16:36:39.024Z,2.30
2018-12-13T16:39:08.746Z,2.40
2018-12-13T16:41:37.662Z,2.30
2018-12-13T16:44:06.480Z,2.30
2018-12-13T16:46:35.094Z,2.30
2018-12-13T16:49:03.882Z,2.30
2018-12-13T16:51:32.431Z,2.30
2018-12-13T16:54:01.377Z,2.30
2018-12-13T16:56:30.334Z,2.40
2018-12-13T16:58:59.022Z,2.40
2018-12-13T17:01:27.563Z,2.50
2018-12-13T17:03:56.239Z,2.50
2018-12-13T17:06:25.031Z,2.50
2018-12-13T17:08:54.101Z,2.50
2018-12-13T17:11:22.680Z,2.60
2018-12-13T17:13:51.233Z,2.60
2018-12-13T17:16:19.763Z,2.60
2018-12-13T17:18:48.354Z,2.60
2018-12-13T17:21:17.037Z,2.50
2018-12-13T17:23:46.136Z,2.50
2018-12-13T17:26:14.711Z,2.50
2018-12-13T17:28:43.403Z,2.50
2018-12-13T17:31:11.918Z,2.60
2018-12-13T17:33:40.502Z,2.50
2018-12-13T17:36:09.231Z,2.50
2018-12-13T17:38:37.740Z,2.50
2018-12-13T17:41:06.414Z,2.50
2018-12-13T17:43:35.071Z,2.50
2018-12-13T17:46:03.791Z,2.40
2018-12-13T17:48:32.405Z,2.40
2018-12-13T17:51:01.036Z,2.30
2018-12-13T17:53:29.676Z,2.20
2018-12-13T17:55:58.394Z,2.20
2018-12-13T17:58:31.366Z,2.10
2018-12-13T18:01:00.111Z,2.10
2018-12-13T18:03:29.159Z,2.00
2018-12-13T18:05:57.886Z,1.90
2018-12-13T18:08:26.805Z,1.90
2018-12-13T18:10:55.363Z,1.80
2018-12-13T18:13:23.951Z,1.80
2018-12-13T18:15:52.565Z,1.80
2018-12-13T18:18:21.292Z,1.90
2018-12-13T18:20:49.908Z,1.90
2018-12-13T18:23:18.573Z,1.80
2018-12-13T18:25:47.149Z,1.90
2018-12-13T18:28:15.727Z,2.00
2018-12-13T18:30:44.318Z,2.10
2018-12-13T18:33:13.770Z,2.00
2018-12-13T18:35:42.302Z,2.00
2018-12-13T18:38:12.518Z,2.00
2018-12-13T18:40:41.243Z,2.00
2018-12-13T18:43:09.899Z,2.10
2018-12-13T18:45:38.679Z,2.10
2018-12-13T18:48:07.434Z,2.10
2018-12-13T18:50:36.260Z,2.10
2018-12-13T18:53:05.093Z,2.10
2018-12-13T18:55:33.784Z,2.20
2018-12-13T18:58:02.834Z,2.30
2018-12-13T19:00:31.477Z,2.30
2018-12-13T19:03:00.145Z,2.30
2018-12-13T19:05:28.668Z,2.30
2018-12-13T19:07:57.297Z,2.30
2018-12-13T19:10:26.728Z,2.30
2018-12-13T19:12:55.370Z,2.30
2018-12-13T19:15:24.070Z,2.30
2018-12-13T19:17:52.870Z,2.30
2018-12-13T19:20:21.574Z,2.30
2018-12-13T19:22:50.207Z,2.40
2018-12-13T19:25:19.030Z,2.40
2018-12-13T19:27:47.967Z,2.40
2018-12-13T19:30:16.540Z,2.30
2018-12-13T19:32:45.172Z,2.30
2018-12-13T19:35:19.250Z,2.30
2018-12-13T19:37:44.720Z,2.30
2018-12-13T19:40:13.438Z,2.30
2018-12-13T19:42:42.061Z,2.40
2018-12-13T19:45:10.983Z,2.30
2018-12-13T19:47:39.537Z,2.30
2018-12-13T19:50:09.672Z,2.30
2018-12-13T19:52:38.809Z,2.30
2018-12-13T19:55:07.851Z,2.30
2018-12-13T19:57:36.634Z,2.30
2018-12-13T20:00:07.165Z,2.30
2018-12-13T20:02:36.243Z,2.40
2018-12-13T20:05:05.358Z,2.40
2018-12-13T20:07:33.891Z,2.30
2018-12-13T20:10:02.506Z,2.30
2018-12-13T20:12:31.192Z,2.30
2018-12-13T20:14:59.814Z,2.30
2018-12-13T20:17:28.433Z,2.30
2018-12-13T20:19:57.501Z,2.30
2018-12-13T20:22:26.159Z,2.20
2018-12-13T20:24:55.049Z,2.30
2018-12-13T20:27:24.592Z,2.30
2018-12-13T20:29:53.238Z,2.30
2018-12-13T20:32:22.395Z,2.30
2018-12-13T20:34:51.533Z,2.30
2018-12-13T20:37:20.110Z,2.30
2018-12-13T20:39:49.349Z,2.30
2018-12-13T20:42:18.104Z,2.30
2018-12-13T20:44:46.828Z,2.30
2018-12-13T20:47:15.447Z,2.20
2018-12-13T20:49:45.061Z,2.30
2018-12-13T20:52:13.706Z,2.30
2018-12-13T20:54:42.386Z,2.30
2018-12-13T20:57:11.884Z,2.20
2018-12-13T20:59:40.523Z,2.20
2018-12-13T21:02:09.525Z,2.20
2018-12-13T21:04:38.153Z,2.30
2018-12-13T21:07:12.106Z,2.30
2018-12-13T21:09:40.899Z,2.30
2018-12-13T21:12:09.699Z,2.30
2018-12-13T21:14:38.749Z,2.30
2018-12-13T21:17:07.463Z,2.40
2018-12-13T21:19:37.222Z,2.40
2018-12-13T21:22:05.997Z,2.40
2018-12-13T21:24:34.804Z,2.30
2018-12-13T21:27:03.663Z,2.40
2018-12-13T21:29:32.286Z,2.40
2018-12-13T21:32:01.161Z,2.40
2018-12-13T21:34:29.798Z,2.40
2018-12-13T21:36:59.141Z,2.40
2018-12-13T21:39:27.845Z,2.40
2018-12-13T21:41:56.499Z,2.30
2018-12-13T21:44:27.234Z,2.40
2018-12-13T21:46:56.065Z,2.40
2018-12-13T21:49:25.430Z,2.40
2018-12-13T21:51:54.216Z,2.40
2018-12-13T21:54:23.040Z,2.40
2018-12-13T21:56:52.087Z,2.40
2018-12-13T21:59:21.104Z,2.40
2018-12-13T22:01:49.979Z,2.40
2018-12-13T22:04:18.590Z,2.40
2018-12-13T22:06:47.351Z,2.40
2018-12-13T22:09:16.534Z,2.30
2018-12-13T22:11:45.171Z,2.40
2018-12-13T22:14:14.044Z,2.30
2018-12-13T22:16:42.664Z,2.30
2018-12-13T22:19:11.215Z,2.30
2018-12-13T22:21:39.782Z,2.40
2018-12-13T22:24:08.372Z,2.40
2018-12-13T22:26:36.998Z,2.30
2018-12-13T22:29:05.878Z,2.30
2018-12-13T22:31:34.944Z,2.30
2018-12-13T22:34:06.330Z,2.30
2018-12-13T22:36:35.526Z,2.30
2018-12-13T22:39:06.179Z,2.30
2018-12-13T22:41:34.806Z,2.30
2018-12-13T22:44:03.415Z,2.30
2018-12-13T22:46:32.030Z,2.30
2018-12-13T22:49:00.577Z,2.30
2018-12-13T22:51:29.173Z,2.20
2018-12-13T22:53:57.836Z,2.20
2018-12-13T22:56:26.461Z,2.20
2018-12-13T22:58:55.012Z,2.20
2018-12-13T23:01:23.786Z,2.10
2018-12-13T23:03:52.479Z,2.20
2018-12-13T23:06:21.124Z,2.10
2018-12-13T23:08:49.750Z,2.20
2018-12-13T23:11:19.661Z,2.20
2018-12-13T23:13:48.414Z,2.20
2018-12-13T23:16:17.075Z,2.20
2018-12-13T23:18:45.663Z,2.20
2018-12-13T23:21:14.248Z,2.20
2018-12-13T23:23:42.945Z,2.20
2018-12-13T23:26:11.544Z,2.10
2018-12-13T23:28:40.062Z,2.10
2018-12-13T23:31:08.623Z,2.10
2018-12-13T23:33:37.191Z,2.10
2018-12-13T23:36:05.773Z,2.10
2018-12-13T23:38:34.355Z,2.10
2018-12-13T23:41:02.901Z,2.10
2018-12-13T23:43:31.511Z,2.10
2018-12-13T23:46:00.071Z,2.10
2018-12-13T23:48:28.804Z,2.00
2018-12-13T23:50:57.366Z,2.00
2018-12-13T23:53:26.198Z,2.00
2018-12-13T23:55:55.264Z,2.00
2018-12-13T23:58:24.589Z,2.00
